sensor_id;sensor_type;location;lat;lon;timestamp;pressure;altitude;pressure_sealevel;temperature;humidity
60319;BME280;46163;52.306;5.634;2022-12-26T00:00:20;100796.25;;;16.77;58.35
60319;BME280;46163;52.306;5.634;2022-12-26T00:02:46;100794.84;;;16.75;58.41
60319;BME280;46163;52.306;5.634;2022-12-26T00:05:14;100776.91;;;16.63;58.53
60319;BME280;46163;52.306;5.634;2022-12-26T00:07:40;100792.41;;;16.73;58.46
60319;BME280;46163;52.306;5.634;2022-12-26T00:10:09;100794.28;;;16.73;58.50
60319;BME280;46163;52.306;5.634;2022-12-26T00:12:34;100796.41;;;16.71;58.34
60319;BME280;46163;52.306;5.634;2022-12-26T00:15:00;100784.13;;;16.63;58.44
60319;BME280;46163;52.306;5.634;2022-12-26T00:17:26;100785.09;;;16.69;58.38
60319;BME280;46163;52.306;5.634;2022-12-26T00:19:52;100781.69;;;16.61;58.33
60319;BME280;46163;52.306;5.634;2022-12-26T00:22:18;100798.72;;;16.67;58.21
60319;BME280;46163;52.306;5.634;2022-12-26T00:24:43;100799.69;;;16.61;58.14
60319;BME280;46163;52.306;5.634;2022-12-26T00:27:09;100797.31;;;16.64;58.30
60319;BME280;46163;52.306;5.634;2022-12-26T00:29:34;100796.50;;;16.64;58.24
60319;BME280;46163;52.306;5.634;2022-12-26T00:32:00;100797.00;;;16.61;58.58
60319;BME280;46163;52.306;5.634;2022-12-26T00:34:25;100803.19;;;16.61;58.22
60319;BME280;46163;52.306;5.634;2022-12-26T00:36:53;100809.63;;;16.60;58.17
60319;BME280;46163;52.306;5.634;2022-12-26T00:39:19;100807.56;;;16.51;58.31
60319;BME280;46163;52.306;5.634;2022-12-26T00:41:44;100811.72;;;16.58;58.08
60319;BME280;46163;52.306;5.634;2022-12-26T00:44:10;100810.81;;;16.53;58.27
60319;BME280;46163;52.306;5.634;2022-12-26T00:46:35;100816.53;;;16.56;58.09
60319;BME280;46163;52.306;5.634;2022-12-26T00:49:01;100812.22;;;16.55;58.18
60319;BME280;46163;52.306;5.634;2022-12-26T00:51:26;100805.22;;;16.54;58.30
60319;BME280;46163;52.306;5.634;2022-12-26T00:53:52;100807.09;;;16.54;58.11
60319;BME280;46163;52.306;5.634;2022-12-26T00:56:18;100817.81;;;16.54;58.40
60319;BME280;46163;52.306;5.634;2022-12-26T00:58:44;100818.88;;;16.53;58.05
60319;BME280;46163;52.306;5.634;2022-12-26T01:01:20;100824.50;;;16.51;58.05
60319;BME280;46163;52.306;5.634;2022-12-26T01:03:48;100836.53;;;16.49;58.20
60319;BME280;46163;52.306;5.634;2022-12-26T01:06:14;100815.19;;;16.42;58.18
60319;BME280;46163;52.306;5.634;2022-12-26T01:08:40;100831.16;;;16.49;58.13
60319;BME280;46163;52.306;5.634;2022-12-26T01:11:08;100841.09;;;16.48;58.16
60319;BME280;46163;52.306;5.634;2022-12-26T01:13:35;100836.19;;;16.45;57.76
60319;BME280;46163;52.306;5.634;2022-12-26T01:16:01;100838.88;;;16.45;57.98
60319;BME280;46163;52.306;5.634;2022-12-26T01:18:26;100835.38;;;16.45;57.96
60319;BME280;46163;52.306;5.634;2022-12-26T01:21:00;100831.53;;;16.40;58.00
60319;BME280;46163;52.306;5.634;2022-12-26T01:23:27;100821.28;;;16.37;57.77
60319;BME280;46163;52.306;5.634;2022-12-26T01:25:52;100837.25;;;16.44;58.17
60319;BME280;46163;52.306;5.634;2022-12-26T01:28:18;100836.34;;;16.38;58.17
60319;BME280;46163;52.306;5.634;2022-12-26T01:30:44;100839.03;;;16.38;58.07
60319;BME280;46163;52.306;5.634;2022-12-26T01:33:09;100845.78;;;16.41;57.95
60319;BME280;46163;52.306;5.634;2022-12-26T01:35:37;100848.47;;;16.41;57.95
60319;BME280;46163;52.306;5.634;2022-12-26T01:38:03;100836.09;;;16.40;57.92
60319;BME280;46163;52.306;5.634;2022-12-26T01:40:29;100834.13;;;16.35;58.02
60319;BME280;46163;52.306;5.634;2022-12-26T01:42:54;100826.41;;;16.39;57.97
60319;BME280;46163;52.306;5.634;2022-12-26T01:45:30;100826.66;;;16.37;58.29
60319;BME280;46163;52.306;5.634;2022-12-26T01:48:19;100819.66;;;16.36;57.98
60319;BME280;46163;52.306;5.634;2022-12-26T01:50:57;100826.06;;;16.35;57.84
60319;BME280;46163;52.306;5.634;2022-12-26T01:53:32;100814.16;;;16.31;58.04
60319;BME280;46163;52.306;5.634;2022-12-26T01:56:10;100809.41;;;16.22;57.94
60319;BME280;46163;52.306;5.634;2022-12-26T01:58:42;100830.88;;;16.33;57.93
60319;BME280;46163;52.306;5.634;2022-12-26T02:01:11;100820.97;;;16.22;57.76
60319;BME280;46163;52.306;5.634;2022-12-26T02:03:41;100831.59;;;16.29;57.74
60319;BME280;46163;52.306;5.634;2022-12-26T02:06:31;100833.13;;;16.25;57.91
60319;BME280;46163;52.306;5.634;2022-12-26T02:08:57;100841.50;;;16.28;57.73
60319;BME280;46163;52.306;5.634;2022-12-26T02:11:26;100847.69;;;16.29;57.71
60319;BME280;46163;52.306;5.634;2022-12-26T02:13:53;100844.91;;;16.24;57.80
60319;BME280;46163;52.306;5.634;2022-12-26T02:16:19;100850.63;;;16.27;57.81
60319;BME280;46163;52.306;5.634;2022-12-26T02:18:45;100846.31;;;16.26;57.85
60319;BME280;46163;52.306;5.634;2022-12-26T02:30:09;100828.22;;;16.22;57.71
60319;BME280;46163;52.306;5.634;2022-12-26T02:33:17;100820.72;;;16.24;57.81
60319;BME280;46163;52.306;5.634;2022-12-26T02:57:08;100817.38;;;16.17;57.75
60319;BME280;46163;52.306;5.634;2022-12-26T03:00:07;100819.00;;;16.18;57.61
60319;BME280;46163;52.306;5.634;2022-12-26T03:03:00;100815.50;;;16.17;57.62
60319;BME280;46163;52.306;5.634;2022-12-26T03:05:49;100815.97;;;16.14;57.63
60319;BME280;46163;52.306;5.634;2022-12-26T03:08:45;100807.91;;;16.14;57.75
60319;BME280;46163;52.306;5.634;2022-12-26T03:11:38;100795.47;;;16.08;57.69
60319;BME280;46163;52.306;5.634;2022-12-26T03:14:26;100800.91;;;16.13;57.57
60319;BME280;46163;52.306;5.634;2022-12-26T03:16:59;100799.53;;;16.10;57.65
60319;BME280;46163;52.306;5.634;2022-12-26T03:19:46;100790.19;;;16.13;57.60
60319;BME280;46163;52.306;5.634;2022-12-26T03:22:47;100774.38;;;16.00;57.47
60319;BME280;46163;52.306;5.634;2022-12-26T03:28:30;100801.28;;;16.05;57.46
60319;BME280;46163;52.306;5.634;2022-12-26T03:30:58;100815.06;;;16.08;57.32
60319;BME280;46163;52.306;5.634;2022-12-26T03:33:30;100820.19;;;16.10;57.49
60319;BME280;46163;52.306;5.634;2022-12-26T03:39:08;100830.38;;;16.08;57.28
60319;BME280;46163;52.306;5.634;2022-12-26T03:41:54;100833.25;;;16.06;57.42
60319;BME280;46163;52.306;5.634;2022-12-26T03:44:56;100835.94;;;16.06;57.57
60319;BME280;46163;52.306;5.634;2022-12-26T03:47:52;100819.03;;;16.06;57.35
60319;BME280;46163;52.306;5.634;2022-12-26T03:50:43;100812.75;;;16.00;57.49
60319;BME280;46163;52.306;5.634;2022-12-26T03:53:44;100816.81;;;16.03;57.42
60319;BME280;46163;52.306;5.634;2022-12-26T03:56:38;100832.94;;;16.03;57.60
60319;BME280;46163;52.306;5.634;2022-12-26T03:59:33;100841.22;;;16.01;57.44
60319;BME280;46163;52.306;5.634;2022-12-26T04:02:19;100847.41;;;16.02;57.49
60319;BME280;46163;52.306;5.634;2022-12-26T04:05:04;100837.72;;;16.01;57.47
60319;BME280;46163;52.306;5.634;2022-12-26T04:07:57;100829.56;;;15.96;57.35
60319;BME280;46163;52.306;5.634;2022-12-26T04:10:48;100816.25;;;15.89;57.25
60319;BME280;46163;52.306;5.634;2022-12-26T04:13:57;100828.25;;;15.98;57.54
60319;BME280;46163;52.306;5.634;2022-12-26T04:16:48;100808.00;;;15.91;57.33
60319;BME280;46163;52.306;5.634;2022-12-26T04:25:27;100816.84;;;15.91;57.63
60319;BME280;46163;52.306;5.634;2022-12-26T04:28:17;100827.94;;;15.95;57.42
60319;BME280;46163;52.306;5.634;2022-12-26T04:31:06;100812.75;;;15.89;57.27
60319;BME280;46163;52.306;5.634;2022-12-26T04:33:56;100819.88;;;15.95;57.33
60319;BME280;46163;52.306;5.634;2022-12-26T04:36:48;100828.75;;;15.95;57.38
60319;BME280;46163;52.306;5.634;2022-12-26T04:39:34;100833.88;;;15.97;57.26
60319;BME280;46163;52.306;5.634;2022-12-26T04:42:21;100828.16;;;15.93;57.38
60319;BME280;46163;52.306;5.634;2022-12-26T04:45:08;100827.56;;;16.03;57.37
60319;BME280;46163;52.306;5.634;2022-12-26T04:47:35;100827.56;;;16.03;57.20
60319;BME280;46163;52.306;5.634;2022-12-26T04:50:06;100832.56;;;16.11;57.31
60319;BME280;46163;52.306;5.634;2022-12-26T04:52:41;100825.31;;;16.11;57.16
60319;BME280;46163;52.306;5.634;2022-12-26T04:55:26;100827.97;;;16.23;56.97
60319;BME280;46163;52.306;5.634;2022-12-26T04:57:52;100824.09;;;16.31;56.87
60319;BME280;46163;52.306;5.634;2022-12-26T05:00:18;100810.03;;;16.40;56.76
60319;BME280;46163;52.306;5.634;2022-12-26T05:02:46;100820.41;;;16.49;56.37
60319;BME280;46163;52.306;5.634;2022-12-26T05:05:39;100797.97;;;16.55;56.36
60319;BME280;46163;52.306;5.634;2022-12-26T05:08:36;100807.97;;;16.71;56.01
60319;BME280;46163;52.306;5.634;2022-12-26T05:11:20;100804.88;;;16.79;55.73
60319;BME280;46163;52.306;5.634;2022-12-26T05:13:46;100801.31;;;16.90;55.54
60319;BME280;46163;52.306;5.634;2022-12-26T05:16:14;100804.09;;;16.95;55.41
60319;BME280;46163;52.306;5.634;2022-12-26T05:18:58;100781.94;;;16.88;55.06
60319;BME280;46163;52.306;5.634;2022-12-26T05:21:42;100800.25;;;17.08;54.88
60319;BME280;46163;52.306;5.634;2022-12-26T05:24:32;100806.59;;;17.19;54.85
60319;BME280;46163;52.306;5.634;2022-12-26T05:27:18;100807.50;;;17.24;54.57
60319;BME280;46163;52.306;5.634;2022-12-26T05:30:02;100800.81;;;17.27;54.11
60319;BME280;46163;52.306;5.634;2022-12-26T05:32:30;100803.09;;;17.35;54.51
60319;BME280;46163;52.306;5.634;2022-12-26T05:35:14;100807.41;;;17.36;54.40
60319;BME280;46163;52.306;5.634;2022-12-26T05:37:43;100808.00;;;17.38;54.19
60319;BME280;46163;52.306;5.634;2022-12-26T05:40:08;100821.03;;;17.46;54.05
60319;BME280;46163;52.306;5.634;2022-12-26T05:42:35;100814.50;;;17.42;53.73
60319;BME280;46163;52.306;5.634;2022-12-26T05:45:00;100817.03;;;17.49;53.98
60319;BME280;46163;52.306;5.634;2022-12-26T05:47:26;100808.31;;;17.42;53.92
60319;BME280;46163;52.306;5.634;2022-12-26T05:49:52;100829.00;;;17.58;53.90
60319;BME280;46163;52.306;5.634;2022-12-26T05:52:20;100828.25;;;17.63;53.85
60319;BME280;46163;52.306;5.634;2022-12-26T05:54:45;100825.34;;;17.64;53.70
60319;BME280;46163;52.306;5.634;2022-12-26T05:57:11;100823.44;;;17.65;53.63
60319;BME280;46163;52.306;5.634;2022-12-26T05:59:37;100830.78;;;17.69;53.84
60319;BME280;46163;52.306;5.634;2022-12-26T06:02:03;100832.44;;;17.70;53.36
60319;BME280;46163;52.306;5.634;2022-12-26T06:04:29;100815.81;;;17.73;53.53
60319;BME280;46163;52.306;5.634;2022-12-26T06:06:55;100793.84;;;17.65;53.54
60319;BME280;46163;52.306;5.634;2022-12-26T06:09:22;100804.84;;;17.80;53.50
60319;BME280;46163;52.306;5.634;2022-12-26T06:11:49;100809.19;;;17.81;53.25
60319;BME280;46163;52.306;5.634;2022-12-26T06:14:15;100810.53;;;17.84;53.48
60319;BME280;46163;52.306;5.634;2022-12-26T06:16:40;100803.84;;;17.86;53.44
60319;BME280;46163;52.306;5.634;2022-12-26T06:19:06;100806.28;;;17.88;53.11
60319;BME280;46163;52.306;5.634;2022-12-26T06:21:32;100795.25;;;17.89;53.25
60319;BME280;46163;52.306;5.634;2022-12-26T06:23:57;100801.78;;;17.93;53.34
60319;BME280;46163;52.306;5.634;2022-12-26T06:26:27;100789.88;;;17.89;53.03
60319;BME280;46163;52.306;5.634;2022-12-26T06:28:55;100802.09;;;17.97;53.19
60319;BME280;46163;52.306;5.634;2022-12-26T06:31:21;100811.56;;;17.99;53.04
60319;BME280;46163;52.306;5.634;2022-12-26T06:33:49;100812.13;;;18.01;52.81
60319;BME280;46163;52.306;5.634;2022-12-26T06:36:19;100802.16;;;18.02;53.02
60319;BME280;46163;52.306;5.634;2022-12-26T06:38:46;100820.50;;;18.05;52.95
60319;BME280;46163;52.306;5.634;2022-12-26T06:41:14;100813.22;;;18.05;52.86
60319;BME280;46163;52.306;5.634;2022-12-26T06:43:43;100813.56;;;18.09;52.77
60319;BME280;46163;52.306;5.634;2022-12-26T06:46:13;100818.69;;;18.11;52.85
60319;BME280;46163;52.306;5.634;2022-12-26T06:48:41;100809.25;;;18.08;52.73
60319;BME280;46163;52.306;5.634;2022-12-26T06:51:15;100794.16;;;18.07;52.64
60319;BME280;46163;52.306;5.634;2022-12-26T06:53:42;100805.31;;;18.16;52.69
60319;BME280;46163;52.306;5.634;2022-12-26T06:56:17;100804.72;;;18.14;52.71
60319;BME280;46163;52.306;5.634;2022-12-26T06:58:43;100803.09;;;18.13;52.81
60319;BME280;46163;52.306;5.634;2022-12-26T07:01:13;100807.66;;;18.12;52.57
60319;BME280;46163;52.306;5.634;2022-12-26T07:03:39;100796.84;;;18.07;52.55
60319;BME280;46163;52.306;5.634;2022-12-26T07:08:54;100810.91;;;18.14;52.72
60319;BME280;46163;52.306;5.634;2022-12-26T07:11:23;100807.47;;;18.19;52.69
60319;BME280;46163;52.306;5.634;2022-12-26T07:13:49;100806.97;;;18.22;52.61
60319;BME280;46163;52.306;5.634;2022-12-26T07:16:15;100815.06;;;18.22;52.35
60319;BME280;46163;52.306;5.634;2022-12-26T07:18:40;100813.16;;;18.22;52.55
60319;BME280;46163;52.306;5.634;2022-12-26T07:21:13;100813.97;;;18.23;52.54
60319;BME280;46163;52.306;5.634;2022-12-26T07:23:39;100791.25;;;18.14;52.45
60319;BME280;46163;52.306;5.634;2022-12-26T07:26:06;100798.34;;;18.20;52.60
60319;BME280;46163;52.306;5.634;2022-12-26T07:28:31;100796.16;;;18.17;52.78
60319;BME280;46163;52.306;5.634;2022-12-26T07:30:57;100792.03;;;18.09;52.63
60319;BME280;46163;52.306;5.634;2022-12-26T07:33:25;100803.09;;;18.13;52.65
60319;BME280;46163;52.306;5.634;2022-12-26T07:35:52;100784.69;;;18.04;52.87
60319;BME280;46163;52.306;5.634;2022-12-26T07:38:17;100790.94;;;18.10;52.74
60319;BME280;46163;52.306;5.634;2022-12-26T07:40:43;100801.47;;;18.12;52.71
60319;BME280;46163;52.306;5.634;2022-12-26T07:43:09;100802.03;;;18.14;52.93
60319;BME280;46163;52.306;5.634;2022-12-26T07:45:34;100798.84;;;18.17;52.85
60319;BME280;46163;52.306;5.634;2022-12-26T07:48:00;100774.41;;;18.01;52.82
60319;BME280;46163;52.306;5.634;2022-12-26T07:50:28;100778.84;;;18.13;52.87
60319;BME280;46163;52.306;5.634;2022-12-26T07:52:54;100776.59;;;18.04;53.21
60319;BME280;46163;52.306;5.634;2022-12-26T07:55:20;100805.59;;;18.19;53.01
60319;BME280;46163;52.306;5.634;2022-12-26T07:57:50;100808.28;;;18.19;53.02
60319;BME280;46163;52.306;5.634;2022-12-26T08:00:17;100805.34;;;18.21;53.17
60319;BME280;46163;52.306;5.634;2022-12-26T08:02:43;100804.53;;;18.20;53.00
60319;BME280;46163;52.306;5.634;2022-12-26T08:05:11;100806.97;;;18.22;52.89
60319;BME280;46163;52.306;5.634;2022-12-26T08:07:37;100807.53;;;18.24;53.07
60319;BME280;46163;52.306;5.634;2022-12-26T08:10:05;100812.69;;;18.25;53.12
60319;BME280;46163;52.306;5.634;2022-12-26T08:12:32;100790.19;;;18.15;53.11
60319;BME280;46163;52.306;5.634;2022-12-26T08:14:58;100805.41;;;18.26;53.06
60319;BME280;46163;52.306;5.634;2022-12-26T08:17:24;100806.97;;;18.22;53.30
60319;BME280;46163;52.306;5.634;2022-12-26T08:19:50;100806.72;;;18.23;53.01
60319;BME280;46163;52.306;5.634;2022-12-26T08:22:15;100822.66;;;18.25;53.08
60319;BME280;46163;52.306;5.634;2022-12-26T08:24:41;100817.75;;;18.22;53.12
60319;BME280;46163;52.306;5.634;2022-12-26T08:27:09;100810.44;;;18.17;53.51
60319;BME280;46163;52.306;5.634;2022-12-26T08:29:35;100813.69;;;18.19;53.42
60319;BME280;46163;52.306;5.634;2022-12-26T08:32:01;100822.03;;;18.18;53.36
60319;BME280;46163;52.306;5.634;2022-12-26T08:34:34;100832.47;;;18.14;53.42
60319;BME280;46163;52.306;5.634;2022-12-26T08:37:00;100836.78;;;18.15;53.54
60319;BME280;46163;52.306;5.634;2022-12-26T08:39:26;100828.16;;;18.13;53.66
60319;BME280;46163;52.306;5.634;2022-12-26T08:41:52;100830.53;;;18.10;53.68
60319;BME280;46163;52.306;5.634;2022-12-26T08:44:17;100843.44;;;18.07;53.72
60319;BME280;46163;52.306;5.634;2022-12-26T08:46:44;100839.34;;;18.05;53.74
60319;BME280;46163;52.306;5.634;2022-12-26T08:49:10;100837.69;;;17.99;53.79
60319;BME280;46163;52.306;5.634;2022-12-26T08:51:36;100838.41;;;17.94;53.56
60319;BME280;46163;52.306;5.634;2022-12-26T08:54:03;100847.38;;;18.00;53.82
60319;BME280;46163;52.306;5.634;2022-12-26T08:56:28;100862.09;;;17.92;53.79
60319;BME280;46163;52.306;5.634;2022-12-26T08:58:54;100869.09;;;17.93;53.64
60319;BME280;46163;52.306;5.634;2022-12-26T09:01:22;100887.38;;;17.91;53.67
60319;BME280;46163;52.306;5.634;2022-12-26T09:03:50;100873.34;;;17.89;53.68
60319;BME280;46163;52.306;5.634;2022-12-26T09:06:16;100886.22;;;17.87;54.06
60319;BME280;46163;52.306;5.634;2022-12-26T09:08:42;100885.66;;;17.85;53.94
60319;BME280;46163;52.306;5.634;2022-12-26T09:11:13;100892.63;;;17.81;53.96
60319;BME280;46163;52.306;5.634;2022-12-26T09:13:40;100902.00;;;17.78;54.01
60319;BME280;46163;52.306;5.634;2022-12-26T09:16:12;100889.84;;;17.76;53.80
60319;BME280;46163;52.306;5.634;2022-12-26T09:18:38;100895.72;;;17.73;53.99
60319;BME280;46163;52.306;5.634;2022-12-26T09:21:06;100897.84;;;17.71;54.12
60319;BME280;46163;52.306;5.634;2022-12-26T09:23:32;100897.50;;;17.67;54.27
60319;BME280;46163;52.306;5.634;2022-12-26T09:26:09;100907.69;;;17.65;54.29
60319;BME280;46163;52.306;5.634;2022-12-26T09:28:36;100921.63;;;17.62;54.44
60319;BME280;46163;52.306;5.634;2022-12-26T09:31:06;100936.41;;;17.60;54.28
60319;BME280;46163;52.306;5.634;2022-12-26T09:33:32;100933.84;;;17.53;54.35
60319;BME280;46163;52.306;5.634;2022-12-26T09:36:10;100949.19;;;17.52;54.37
60319;BME280;46163;52.306;5.634;2022-12-26T09:38:35;100956.69;;;17.50;54.43
60319;BME280;46163;52.306;5.634;2022-12-26T09:44:35;100979.19;;;17.44;54.52
60319;BME280;46163;52.306;5.634;2022-12-26T09:50:11;100996.53;;;17.37;54.53
60319;BME280;46163;52.306;5.634;2022-12-26T09:52:48;101029.56;;;17.32;54.58
60319;BME280;46163;52.306;5.634;2022-12-26T09:55:41;101034.34;;;17.30;54.69
60319;BME280;46163;52.306;5.634;2022-12-26T09:58:28;101041.81;;;17.28;54.71
60319;BME280;46163;52.306;5.634;2022-12-26T10:01:15;101051.19;;;17.26;54.72
60319;BME280;46163;52.306;5.634;2022-12-26T10:03:44;101045.94;;;17.19;54.77
60319;BME280;46163;52.306;5.634;2022-12-26T10:06:21;101058.50;;;17.13;54.82
60319;BME280;46163;52.306;5.634;2022-12-26T10:09:03;101077.41;;;17.18;54.99
60319;BME280;46163;52.306;5.634;2022-12-26T10:16:55;101109.84;;;17.12;54.98
60319;BME280;46163;52.306;5.634;2022-12-26T10:19:58;101104.91;;;17.09;55.07
60319;BME280;46163;52.306;5.634;2022-12-26T10:25:07;101123.03;;;17.02;54.93
60319;BME280;46163;52.306;5.634;2022-12-26T10:27:40;101108.34;;;17.04;54.91
60319;BME280;46163;52.306;5.634;2022-12-26T10:30:17;101114.97;;;17.02;54.83
60319;BME280;46163;52.306;5.634;2022-12-26T10:32:47;101108.44;;;16.98;54.98
60319;BME280;46163;52.306;5.634;2022-12-26T10:35:31;101114.66;;;16.98;55.10
60319;BME280;46163;52.306;5.634;2022-12-26T10:38:03;101120.25;;;16.97;54.98
60319;BME280;46163;52.306;5.634;2022-12-26T10:40:37;101135.81;;;16.94;55.13
60319;BME280;46163;52.306;5.634;2022-12-26T10:43:20;101134.41;;;16.92;54.95
60319;BME280;46163;52.306;5.634;2022-12-26T10:45:59;101133.59;;;16.91;54.95
60319;BME280;46163;52.306;5.634;2022-12-26T10:48:29;101131.94;;;16.90;55.10
60319;BME280;46163;52.306;5.634;2022-12-26T10:50:55;101144.00;;;16.88;55.07
60319;BME280;46163;52.306;5.634;2022-12-26T10:53:21;101128.47;;;16.78;54.93
60319;BME280;46163;52.306;5.634;2022-12-26T10:55:46;101157.06;;;16.84;55.06
60319;BME280;46163;52.306;5.634;2022-12-26T10:58:31;101156.25;;;16.84;55.07
60319;BME280;46163;52.306;5.634;2022-12-26T11:03:59;101165.03;;;16.79;55.29
60319;BME280;46163;52.306;5.634;2022-12-26T11:06:35;101150.72;;;16.67;55.08
60319;BME280;46163;52.306;5.634;2022-12-26T11:09:05;101150.25;;;16.58;55.10
60319;BME280;46163;52.306;5.634;2022-12-26T11:11:32;101179.16;;;16.75;55.27
60319;BME280;46163;52.306;5.634;2022-12-26T11:14:35;101165.22;;;16.66;55.13
60319;BME280;46163;52.306;5.634;2022-12-26T11:17:08;101170.75;;;16.71;55.20
60319;BME280;46163;52.306;5.634;2022-12-26T11:19:44;101179.16;;;16.75;55.32
60319;BME280;46163;52.306;5.634;2022-12-26T11:22:27;101180.44;;;16.72;55.16
60319;BME280;46163;52.306;5.634;2022-12-26T11:27:35;101191.28;;;16.65;55.21
60319;BME280;46163;52.306;5.634;2022-12-26T11:32:44;101202.03;;;16.65;55.41
60319;BME280;46163;52.306;5.634;2022-12-26T11:35:25;101216.75;;;16.63;55.31
60319;BME280;46163;52.306;5.634;2022-12-26T11:37:59;101194.63;;;16.49;55.23
60319;BME280;46163;52.306;5.634;2022-12-26T11:40:32;101202.00;;;16.54;55.26
60319;BME280;46163;52.306;5.634;2022-12-26T11:42:59;101198.03;;;16.56;55.25
60319;BME280;46163;52.306;5.634;2022-12-26T11:45:29;101195.59;;;16.55;55.20
60319;BME280;46163;52.306;5.634;2022-12-26T11:47:57;101208.09;;;16.61;55.09
60319;BME280;46163;52.306;5.634;2022-12-26T11:50:26;101207.50;;;16.59;55.20
60319;BME280;46163;52.306;5.634;2022-12-26T12:00:33;101215.44;;;16.54;55.35
60319;BME280;46163;52.306;5.634;2022-12-26T12:03:00;101218.13;;;16.54;55.10
60319;BME280;46163;52.306;5.634;2022-12-26T12:05:50;101226.19;;;16.54;55.38
60319;BME280;46163;52.306;5.634;2022-12-26T12:11:11;101225.97;;;16.55;55.13
60319;BME280;46163;52.306;5.634;2022-12-26T12:19:25;101233.94;;;16.62;54.96
60319;BME280;46163;52.306;5.634;2022-12-26T12:27:44;101240.94;;;16.63;54.95
60319;BME280;46163;52.306;5.634;2022-12-26T12:30:19;101242.00;;;16.62;55.04
60319;BME280;46163;52.306;5.634;2022-12-26T12:41:09;101247.47;;;16.67;54.94
60319;BME280;46163;52.306;5.634;2022-12-26T12:43:57;101248.53;;;16.66;54.80
60319;BME280;46163;52.306;5.634;2022-12-26T12:46:44;101256.59;;;16.66;54.76
60319;BME280;46163;52.306;5.634;2022-12-26T13:02:40;101276.44;;;16.65;54.80
60319;BME280;46163;52.306;5.634;2022-12-26T13:08:41;101281.00;;;16.64;54.68
60319;BME280;46163;52.306;5.634;2022-12-26T13:11:16;101283.94;;;16.63;54.71
60319;BME280;46163;52.306;5.634;2022-12-26T13:13:53;101265.78;;;16.58;54.52
60319;BME280;46163;52.306;5.634;2022-12-26T13:16:27;101260.97;;;16.49;54.75
60319;BME280;46163;52.306;5.634;2022-12-26T13:19:00;101290.34;;;16.62;54.57
60319;BME280;46163;52.306;5.634;2022-12-26T13:21:30;101287.09;;;16.60;54.57
60319;BME280;46163;52.306;5.634;2022-12-26T13:24:15;101291.41;;;16.61;54.62
60319;BME280;46163;52.306;5.634;2022-12-26T13:29:43;101291.03;;;16.57;54.49
60319;BME280;46163;52.306;5.634;2022-12-26T13:34:44;101299.69;;;16.59;54.61
60319;BME280;46163;52.306;5.634;2022-12-26T13:40:16;101313.50;;;16.63;54.33
60319;BME280;46163;52.306;5.634;2022-12-26T13:42:53;101319.44;;;16.65;54.36
60319;BME280;46163;52.306;5.634;2022-12-26T13:56:00;101327.69;;;16.70;54.28
60319;BME280;46163;52.306;5.634;2022-12-26T14:01:45;101336.81;;;16.69;54.25
60319;BME280;46163;52.306;5.634;2022-12-26T14:07:49;101338.84;;;16.67;54.27
60319;BME280;46163;52.306;5.634;2022-12-26T14:16:34;101354.84;;;16.62;54.10
60319;BME280;46163;52.306;5.634;2022-12-26T14:19:15;101363.72;;;16.62;53.97
60319;BME280;46163;52.306;5.634;2022-12-26T14:22:10;101372.75;;;16.68;54.00
60319;BME280;46163;52.306;5.634;2022-12-26T14:27:43;101374.44;;;16.69;53.84
60319;BME280;46163;52.306;5.634;2022-12-26T14:30:28;101379.34;;;16.72;53.94
60319;BME280;46163;52.306;5.634;2022-12-26T14:33:19;101387.41;;;16.72;54.04
60319;BME280;46163;52.306;5.634;2022-12-26T14:40:58;101404.34;;;16.73;53.77
60319;BME280;46163;52.306;5.634;2022-12-26T14:43:40;101405.97;;;16.74;53.91
60319;BME280;46163;52.306;5.634;2022-12-26T14:48:58;101419.66;;;16.72;53.61
60319;BME280;46163;52.306;5.634;2022-12-26T14:51:34;101410.53;;;16.73;53.72
60319;BME280;46163;52.306;5.634;2022-12-26T14:56:49;101419.88;;;16.71;53.83
60319;BME280;46163;52.306;5.634;2022-12-26T14:59:25;101417.44;;;16.69;53.79
60319;BME280;46163;52.306;5.634;2022-12-26T15:07:31;101433.91;;;16.73;53.60
60319;BME280;46163;52.306;5.634;2022-12-26T15:13:04;101433.09;;;16.72;53.61
60319;BME280;46163;52.306;5.634;2022-12-26T15:16:05;101423.97;;;16.73;53.70
60319;BME280;46163;52.306;5.634;2022-12-26T15:18:50;101435.53;;;16.74;53.46
60319;BME280;46163;52.306;5.634;2022-12-26T15:30:21;101445.25;;;16.75;53.53
60319;BME280;46163;52.306;5.634;2022-12-26T15:33:01;101453.31;;;16.75;53.70
60319;BME280;46163;52.306;5.634;2022-12-26T15:35:37;101458.44;;;16.76;53.52
60319;BME280;46163;52.306;5.634;2022-12-26T15:43:54;101455.34;;;16.79;53.27
60319;BME280;46163;52.306;5.634;2022-12-26T15:46:31;101463.41;;;16.79;53.24
60319;BME280;46163;52.306;5.634;2022-12-26T15:49:17;101461.75;;;16.78;53.30
60319;BME280;46163;52.306;5.634;2022-12-26T16:11:19;101483.09;;;16.73;53.29
60319;BME280;46163;52.306;5.634;2022-12-26T16:14:00;101489.53;;;16.72;53.43
60319;BME280;46163;52.306;5.634;2022-12-26T16:18:55;101486.84;;;16.72;53.31
60319;BME280;46163;52.306;5.634;2022-12-26T16:21:24;101488.13;;;16.70;53.29
60319;BME280;46163;52.306;5.634;2022-12-26T16:24:10;101499.47;;;16.72;53.32
60319;BME280;46163;52.306;5.634;2022-12-26T16:26:41;101496.78;;;16.72;53.07
60319;BME280;46163;52.306;5.634;2022-12-26T16:29:15;101504.59;;;16.73;53.21
60319;BME280;46163;52.306;5.634;2022-12-26T16:31:41;101512.91;;;16.72;53.42
60319;BME280;46163;52.306;5.634;2022-12-26T16:34:13;101512.66;;;16.73;53.18
60319;BME280;46163;52.306;5.634;2022-12-26T16:36:43;101518.03;;;16.73;53.24
60319;BME280;46163;52.306;5.634;2022-12-26T16:39:11;101518.88;;;16.74;53.35
60319;BME280;46163;52.306;5.634;2022-12-26T16:42:03;101521.56;;;16.74;53.19
60319;BME280;46163;52.306;5.634;2022-12-26T16:44:37;101512.50;;;16.68;53.40
60319;BME280;46163;52.306;5.634;2022-12-26T16:47:14;101527.75;;;16.74;53.04